createdAt,value
2023-02-22T00:00:15.467Z,84.47
2023-02-22T00:01:06.230Z,84.47
2023-02-22T00:01:56.981Z,84.44
2023-02-22T00:02:47.765Z,84.44
2023-02-22T00:03:38.507Z,84.47
2023-02-22T00:04:29.268Z,84.44
2023-02-22T00:05:20.025Z,84.44
2023-02-22T00:06:10.785Z,84.33
2023-02-22T00:07:01.535Z,84.33
2023-02-22T00:07:52.303Z,84.44
2023-02-22T00:08:43.072Z,84.44
2023-02-22T00:09:33.809Z,84.44
2023-02-22T00:10:24.572Z,84.44
2023-02-22T00:11:15.707Z,84.33
2023-02-22T00:12:06.572Z,84.23
2023-02-22T00:12:57.335Z,84.23
2023-02-22T00:13:48.101Z,84.12
2023-02-22T00:14:38.863Z,84.12
2023-02-22T00:15:29.639Z,84.03
2023-02-22T00:16:20.440Z,84.03
2023-02-22T00:17:11.158Z,83.92
2023-02-22T00:18:01.916Z,83.92
2023-02-22T00:18:52.686Z,83.92
2023-02-22T00:19:43.449Z,83.92
2023-02-22T00:20:34.220Z,83.92
2023-02-22T00:21:24.978Z,83.92
2023-02-22T00:22:15.721Z,83.92
2023-02-22T00:23:06.498Z,83.92
2023-02-22T00:23:57.283Z,83.92
2023-02-22T00:24:48.020Z,83.92
2023-02-22T00:25:38.799Z,83.92
2023-02-22T00:26:29.556Z,83.82
2023-02-22T00:27:20.375Z,83.82
2023-02-22T00:28:11.094Z,83.82
2023-02-22T00:29:01.856Z,83.82
2023-02-22T00:29:52.624Z,83.82
2023-02-22T00:30:43.444Z,83.82
2023-02-22T00:31:34.193Z,83.72
2023-02-22T00:32:24.948Z,83.72
2023-02-22T00:33:15.680Z,83.72
2023-02-22T00:34:06.441Z,83.72
2023-02-22T00:34:57.200Z,83.72
2023-02-22T00:35:47.964Z,83.72
2023-02-22T00:36:38.731Z,83.61
2023-02-22T00:37:29.488Z,83.61
2023-02-22T00:38:20.253Z,83.61
2023-02-22T00:39:11.029Z,83.61
2023-02-22T00:40:01.855Z,83.61
2023-02-22T00:40:52.546Z,83.61
2023-02-22T00:41:43.403Z,83.51
2023-02-22T00:42:34.146Z,83.51
2023-02-22T00:43:24.909Z,83.51
2023-02-22T00:44:15.667Z,83.41
2023-02-22T00:45:06.446Z,83.41
2023-02-22T00:45:57.292Z,83.41
2023-02-22T00:46:48.003Z,83.41
2023-02-22T00:47:38.769Z,83.41
2023-02-22T00:48:29.556Z,83.51
2023-02-22T00:49:20.312Z,83.41
2023-02-22T00:50:11.090Z,83.45
2023-02-22T00:51:01.837Z,83.51
2023-02-22T00:51:52.603Z,83.51
2023-02-22T00:52:43.360Z,83.51
2023-02-22T00:53:34.125Z,83.55
2023-02-22T00:54:24.906Z,83.55
2023-02-22T00:55:15.644Z,83.55
2023-02-22T00:56:06.403Z,83.55
2023-02-22T00:56:57.156Z,83.55
2023-02-22T00:57:47.915Z,83.55
2023-02-22T00:58:38.689Z,83.55
2023-02-22T00:59:29.452Z,83.55
2023-02-22T01:00:20.213Z,83.55
2023-02-22T01:01:11.090Z,83.55
2023-02-22T01:02:01.812Z,83.55
2023-02-22T01:02:52.654Z,83.55
2023-02-22T01:03:43.577Z,83.55
2023-02-22T01:04:34.420Z,83.55
2023-02-22T01:05:25.327Z,83.55
2023-02-22T01:06:16.073Z,83.55
2023-02-22T01:07:06.835Z,83.55
2023-02-22T01:07:57.596Z,83.55
2023-02-22T01:08:48.384Z,83.55
2023-02-22T01:09:39.147Z,83.55
2023-02-22T01:10:29.899Z,83.55
2023-02-22T01:11:20.656Z,83.55
2023-02-22T01:12:11.412Z,83.65
2023-02-22T01:13:02.191Z,83.65
2023-02-22T01:13:52.946Z,83.65
2023-02-22T01:14:43.712Z,83.65
2023-02-22T01:15:34.461Z,83.65
2023-02-22T01:16:25.253Z,83.65
2023-02-22T01:17:15.987Z,83.65
2023-02-22T01:18:06.786Z,83.65
2023-02-22T01:18:57.506Z,83.76
2023-02-22T01:19:48.255Z,83.76
2023-02-22T01:20:39.026Z,83.76
2023-02-22T01:21:29.787Z,83.86
2023-02-22T01:22:20.550Z,83.86
2023-02-22T01:23:11.320Z,83.96
2023-02-22T01:24:02.084Z,83.96
2023-02-22T01:24:52.863Z,83.96
2023-02-22T01:25:43.607Z,83.96
2023-02-22T01:26:34.382Z,84.06
2023-02-22T01:27:25.142Z,84.06
2023-02-22T01:28:15.927Z,84.06
2023-02-22T01:29:06.675Z,84.17
2023-02-22T01:29:57.439Z,84.17
2023-02-22T01:30:48.252Z,84.17
2023-02-22T01:31:39.021Z,84.17
2023-02-22T01:32:29.736Z,84.27
2023-02-22T01:33:20.502Z,84.27
2023-02-22T01:34:11.268Z,84.37
2023-02-22T01:35:02.028Z,84.37
2023-02-22T01:35:52.786Z,84.37
2023-02-22T01:36:43.556Z,84.37
2023-02-22T01:37:34.304Z,84.47
2023-02-22T01:38:25.092Z,84.47
2023-02-22T01:39:15.835Z,84.47
2023-02-22T01:40:06.723Z,84.47
2023-02-22T01:40:57.410Z,84.47
2023-02-22T01:41:48.171Z,84.58
2023-02-22T01:42:38.932Z,84.58
2023-02-22T01:43:29.717Z,84.58
2023-02-22T01:44:20.469Z,84.58
2023-02-22T01:45:11.213Z,84.68
2023-02-22T01:46:02.138Z,84.68
2023-02-22T01:46:52.858Z,84.68
2023-02-22T01:47:43.601Z,84.68
2023-02-22T01:48:34.402Z,84.68
2023-02-22T01:49:25.152Z,84.68
2023-02-22T01:50:15.917Z,84.68
2023-02-22T01:51:06.670Z,84.78
2023-02-22T01:51:57.417Z,84.78
2023-02-22T01:52:48.178Z,84.78
2023-02-22T01:53:38.933Z,84.78
2023-02-22T01:54:29.697Z,84.88
2023-02-22T01:55:20.479Z,84.88
2023-02-22T01:56:11.229Z,84.88
2023-02-22T01:57:01.968Z,84.88
2023-02-22T01:57:52.728Z,84.88
2023-02-22T01:58:43.474Z,84.88
2023-02-22T01:59:34.247Z,84.88
2023-02-22T02:00:25.003Z,84.88
2023-02-22T02:01:16.129Z,84.88
2023-02-22T02:02:06.932Z,84.88
2023-02-22T02:02:57.696Z,84.88
2023-02-22T02:03:48.497Z,84.99
2023-02-22T02:04:39.228Z,84.99
2023-02-22T02:05:29.983Z,84.99
2023-02-22T02:06:20.766Z,84.99
2023-02-22T02:07:11.496Z,84.99
2023-02-22T02:08:02.252Z,85.09
2023-02-22T02:08:53.010Z,85.09
2023-02-22T02:09:43.788Z,85.09
2023-02-22T02:10:34.554Z,85.09
2023-02-22T02:11:25.300Z,85.09
2023-02-22T02:12:16.061Z,85.09
2023-02-22T02:13:06.827Z,85.09
2023-02-22T02:13:57.590Z,85.09
2023-02-22T02:14:48.383Z,85.09
2023-02-22T02:15:39.123Z,85.09
2023-02-22T02:16:29.904Z,85.09
2023-02-22T02:17:20.658Z,85.19
2023-02-22T02:18:11.437Z,85.19
2023-02-22T02:19:02.194Z,85.19
2023-02-22T02:19:53.040Z,85.19
2023-02-22T02:20:43.746Z,85.19
2023-02-22T02:21:34.504Z,85.19
2023-02-22T02:22:25.250Z,85.19
2023-02-22T02:23:16.014Z,85.19
2023-02-22T02:24:06.781Z,85.19
2023-02-22T02:24:57.536Z,85.30
2023-02-22T02:25:48.309Z,85.30
2023-02-22T02:26:39.050Z,85.30
2023-02-22T02:27:29.822Z,85.30
2023-02-22T02:28:20.586Z,85.30
2023-02-22T02:29:11.355Z,85.30
2023-02-22T02:30:02.101Z,85.30
2023-02-22T02:30:52.854Z,85.19
2023-02-22T02:31:43.717Z,85.19
2023-02-22T02:32:34.495Z,85.19
2023-02-22T02:33:25.220Z,85.19
2023-02-22T02:34:15.971Z,85.19
2023-02-22T02:35:06.713Z,85.19
2023-02-22T02:35:57.476Z,85.19
2023-02-22T02:36:48.237Z,85.19
2023-02-22T02:37:38.997Z,85.19
2023-02-22T02:38:29.826Z,85.30
2023-02-22T02:39:20.515Z,85.30
2023-02-22T02:40:11.425Z,85.30
2023-02-22T02:41:02.216Z,85.30
2023-02-22T02:41:52.991Z,85.30
2023-02-22T02:42:43.736Z,85.30
2023-02-22T02:43:34.505Z,85.33
2023-02-22T02:44:25.263Z,85.33
2023-02-22T02:45:16.022Z,85.30
2023-02-22T02:46:06.773Z,85.30
2023-02-22T02:46:57.604Z,85.44
2023-02-22T02:47:48.320Z,85.33
2023-02-22T02:48:39.087Z,85.39
2023-02-22T02:49:29.848Z,85.44
2023-02-22T02:50:20.606Z,85.44
2023-02-22T02:51:11.364Z,85.54
2023-02-22T02:52:02.131Z,85.54
2023-02-22T02:52:52.874Z,85.54
2023-02-22T02:53:43.639Z,85.54
2023-02-22T02:54:34.405Z,85.54
2023-02-22T02:55:25.169Z,85.44
2023-02-22T02:56:15.941Z,85.44
2023-02-22T02:57:06.681Z,85.44
2023-02-22T02:57:57.466Z,85.54
2023-02-22T02:58:48.232Z,85.54
2023-02-22T02:59:38.981Z,85.54
2023-02-22T03:00:29.752Z,85.54
2023-02-22T03:01:20.530Z,85.54
2023-02-22T03:02:11.266Z,85.54
2023-02-22T03:03:02.021Z,85.54
2023-02-22T03:03:52.781Z,85.54
2023-02-22T03:04:43.530Z,85.64
2023-02-22T03:05:34.292Z,85.64
2023-02-22T03:06:25.054Z,85.64
2023-02-22T03:07:15.821Z,85.64
2023-02-22T03:08:06.561Z,85.64
2023-02-22T03:08:57.354Z,85.64
2023-02-22T03:09:48.070Z,85.64
2023-02-22T03:10:38.836Z,85.64
2023-02-22T03:11:29.616Z,85.60
2023-02-22T03:12:20.351Z,85.64
2023-02-22T03:13:11.116Z,85.54
2023-02-22T03:14:01.923Z,85.50
2023-02-22T03:14:52.680Z,85.50
2023-02-22T03:15:43.443Z,85.50
2023-02-22T03:16:34.281Z,85.50
2023-02-22T03:17:24.995Z,85.50
2023-02-22T03:18:15.757Z,85.50
2023-02-22T03:19:06.522Z,85.50
2023-02-22T03:19:57.293Z,85.50
2023-02-22T03:20:48.034Z,85.50
2023-02-22T03:21:38.788Z,85.39
2023-02-22T03:22:29.560Z,85.39
2023-02-22T03:23:20.308Z,85.30
2023-02-22T03:24:11.066Z,85.30
2023-02-22T03:25:01.834Z,85.33
2023-02-22T03:25:52.562Z,85.33
2023-02-22T03:26:43.351Z,85.44
2023-02-22T03:27:34.080Z,85.44
2023-02-22T03:28:24.839Z,85.44
2023-02-22T03:29:15.603Z,85.44
2023-02-22T03:30:06.467Z,85.44
2023-02-22T03:30:57.211Z,85.44
2023-02-22T03:31:48.010Z,85.44
2023-02-22T03:32:38.737Z,85.44
2023-02-22T03:33:29.494Z,85.44
2023-02-22T03:34:20.262Z,85.54
2023-02-22T03:35:11.035Z,85.54
2023-02-22T03:36:01.783Z,85.54
2023-02-22T03:36:52.540Z,85.54
2023-02-22T03:37:43.296Z,85.54
2023-02-22T03:38:34.070Z,85.54
2023-02-22T03:39:24.815Z,85.54
2023-02-22T03:40:15.572Z,85.54
2023-02-22T03:41:06.319Z,85.54
2023-02-22T03:41:57.105Z,85.54
2023-02-22T03:42:47.850Z,85.54
2023-02-22T03:43:38.605Z,85.54
2023-02-22T03:44:29.360Z,85.54
2023-02-22T03:45:20.120Z,85.54
2023-02-22T03:46:10.934Z,85.54
2023-02-22T03:47:01.634Z,85.54
2023-02-22T03:47:52.390Z,85.54
2023-02-22T03:48:43.143Z,85.54
2023-02-22T03:49:33.897Z,85.54
2023-02-22T03:50:24.670Z,85.64
2023-02-22T03:51:16.938Z,85.54
2023-02-22T03:52:06.588Z,85.54
2023-02-22T03:52:57.352Z,85.39
2023-02-22T03:53:48.160Z,85.44
2023-02-22T03:54:38.879Z,85.44
2023-02-22T03:55:29.637Z,85.33
2023-02-22T03:56:20.389Z,85.30
2023-02-22T03:57:11.178Z,85.33
2023-02-22T03:58:01.914Z,85.30
2023-02-22T03:58:52.668Z,85.33
2023-02-22T03:59:43.424Z,85.30
2023-02-22T04:00:34.174Z,85.30
2023-02-22T04:01:24.929Z,85.33
2023-02-22T04:02:15.680Z,85.44
2023-02-22T04:03:06.502Z,85.44
2023-02-22T04:03:57.207Z,85.44
2023-02-22T04:04:48.048Z,85.39
2023-02-22T04:05:38.776Z,85.39
2023-02-22T04:06:29.534Z,85.39
2023-02-22T04:07:20.273Z,85.44
2023-02-22T04:08:11.058Z,85.44
2023-02-22T04:09:01.821Z,85.44
2023-02-22T04:09:52.583Z,85.44
2023-02-22T04:10:43.362Z,85.39
2023-02-22T04:11:34.110Z,85.39
2023-02-22T04:12:24.930Z,85.44
2023-02-22T04:13:15.632Z,85.39
2023-02-22T04:14:06.389Z,85.44
2023-02-22T04:14:57.185Z,85.44
2023-02-22T04:15:47.968Z,85.39
2023-02-22T04:16:38.706Z,85.39
2023-02-22T04:17:29.468Z,85.39
2023-02-22T04:18:20.234Z,85.39
2023-02-22T04:19:10.998Z,85.39
2023-02-22T04:20:01.771Z,85.39
2023-02-22T04:20:52.519Z,85.39
2023-02-22T04:21:43.262Z,85.39
2023-02-22T04:22:34.028Z,85.39
2023-02-22T04:23:24.801Z,85.44
2023-02-22T04:24:15.532Z,85.39
2023-02-22T04:25:06.294Z,85.44
2023-02-22T04:25:57.056Z,85.39
2023-02-22T04:26:47.819Z,85.39
2023-02-22T04:27:38.594Z,85.39
2023-02-22T04:28:29.352Z,85.39
2023-02-22T04:29:20.118Z,85.39
2023-02-22T04:30:10.915Z,85.39
2023-02-22T04:31:01.657Z,85.39
2023-02-22T04:31:52.430Z,85.39
2023-02-22T04:32:43.162Z,85.44
2023-02-22T04:33:33.917Z,85.44
2023-02-22T04:34:24.682Z,85.44
2023-02-22T04:35:15.442Z,85.44
2023-02-22T04:36:06.203Z,85.39
2023-02-22T04:36:56.949Z,85.44
2023-02-22T04:37:47.713Z,85.39
2023-02-22T04:38:38.484Z,85.44
2023-02-22T04:39:29.314Z,85.44
2023-02-22T04:40:20.006Z,85.54
2023-02-22T04:41:10.800Z,85.54
2023-02-22T04:42:02.436Z,85.54
2023-02-22T04:42:52.475Z,85.54
2023-02-22T04:43:43.945Z,85.54
2023-02-22T04:44:34.037Z,85.54
2023-02-22T04:45:24.778Z,85.64
2023-02-22T04:46:15.595Z,85.54
2023-02-22T04:47:06.316Z,85.54
2023-02-22T04:47:57.136Z,85.60
2023-02-22T04:48:47.905Z,85.64
2023-02-22T04:49:39.143Z,85.64
2023-02-22T04:50:29.881Z,85.64
2023-02-22T04:51:20.625Z,85.64
2023-02-22T04:52:11.389Z,85.74
2023-02-22T04:53:02.159Z,85.74
2023-02-22T04:53:52.922Z,85.74
2023-02-22T04:54:43.683Z,85.71
2023-02-22T04:55:34.485Z,85.71
2023-02-22T04:56:25.241Z,85.74
2023-02-22T04:57:16.944Z,85.74
2023-02-22T04:58:09.195Z,85.85
2023-02-22T04:58:58.203Z,85.80
2023-02-22T04:59:48.960Z,85.80
2023-02-22T05:00:39.718Z,85.85
2023-02-22T05:01:30.569Z,85.85
2023-02-22T05:02:21.364Z,85.85
2023-02-22T05:03:12.089Z,85.95
2023-02-22T05:04:02.875Z,85.95
2023-02-22T05:04:53.684Z,85.95
2023-02-22T05:05:44.398Z,85.95
2023-02-22T05:06:35.189Z,85.95
2023-02-22T05:07:25.915Z,85.95
2023-02-22T05:08:16.668Z,85.95
2023-02-22T05:09:07.429Z,86.05
2023-02-22T05:09:58.191Z,86.05
2023-02-22T05:10:48.959Z,86.05
2023-02-22T05:11:39.706Z,86.15
2023-02-22T05:12:30.471Z,86.15
2023-02-22T05:13:21.252Z,86.25
2023-02-22T05:14:11.984Z,86.25
2023-02-22T05:15:02.767Z,86.25
2023-02-22T05:15:53.530Z,86.25
2023-02-22T05:16:44.284Z,86.25
2023-02-22T05:17:35.026Z,86.25
2023-02-22T05:18:25.788Z,86.25
2023-02-22T05:19:16.543Z,86.25
2023-02-22T05:20:07.300Z,86.25
2023-02-22T05:20:58.083Z,86.25
2023-02-22T05:21:48.837Z,86.25
2023-02-22T05:22:39.587Z,86.25
2023-02-22T05:23:30.355Z,86.36
2023-02-22T05:24:21.118Z,86.36
2023-02-22T05:25:11.877Z,86.46
2023-02-22T05:26:03.451Z,86.46
2023-02-22T05:26:53.517Z,86.46
2023-02-22T05:27:44.253Z,86.36
2023-02-22T05:28:35.039Z,86.36
2023-02-22T05:29:25.780Z,86.36
2023-02-22T05:30:16.681Z,86.36
2023-02-22T05:31:07.624Z,86.36
2023-02-22T05:31:58.451Z,86.46
2023-02-22T05:32:49.269Z,86.46
2023-02-22T05:33:40.037Z,86.46
2023-02-22T05:34:30.828Z,86.36
2023-02-22T05:35:21.548Z,86.46
2023-02-22T05:36:12.302Z,86.46
2023-02-22T05:37:03.057Z,86.36
2023-02-22T05:37:53.829Z,86.36
2023-02-22T05:38:44.593Z,86.36
2023-02-22T05:39:35.360Z,86.36
2023-02-22T05:40:26.124Z,86.46
2023-02-22T05:41:17.305Z,86.36
2023-02-22T05:42:08.129Z,86.36
2023-02-22T05:42:58.874Z,86.36
2023-02-22T05:43:49.703Z,86.36
2023-02-22T05:44:40.407Z,86.36
2023-02-22T05:45:31.159Z,86.36
2023-02-22T05:46:22.008Z,86.36
2023-02-22T05:47:12.722Z,86.36
2023-02-22T05:48:03.479Z,86.36
2023-02-22T05:48:54.248Z,86.36
2023-02-22T05:49:44.985Z,86.36
2023-02-22T05:50:35.750Z,86.36
2023-02-22T05:51:26.521Z,86.25
2023-02-22T05:52:17.266Z,86.25
2023-02-22T05:53:08.032Z,86.25
2023-02-22T05:53:58.815Z,86.36
2023-02-22T05:54:49.587Z,86.36
2023-02-22T05:55:40.372Z,86.36
2023-02-22T05:56:31.174Z,86.46
2023-02-22T05:57:21.962Z,86.46
2023-02-22T05:58:12.747Z,86.57
2023-02-22T05:59:03.541Z,86.57
2023-02-22T05:59:54.311Z,86.57
2023-02-22T06:00:45.107Z,86.57
2023-02-22T06:01:36.342Z,86.57
2023-02-22T06:02:27.038Z,86.66
2023-02-22T06:03:17.805Z,86.66
2023-02-22T06:04:08.575Z,86.66
2023-02-22T06:04:59.320Z,86.77
2023-02-22T06:05:50.111Z,86.77
2023-02-22T06:06:40.902Z,86.66
2023-02-22T06:07:31.773Z,86.66
2023-02-22T06:08:22.645Z,86.66
2023-02-22T06:09:13.536Z,86.66
2023-02-22T06:10:04.378Z,86.66
2023-02-22T06:10:55.266Z,86.66
2023-02-22T06:11:46.122Z,86.66
2023-02-22T06:12:37.109Z,86.66
2023-02-22T06:13:27.881Z,86.66
2023-02-22T06:14:18.580Z,86.77
2023-02-22T06:15:09.493Z,86.77
2023-02-22T06:16:00.434Z,86.77
2023-02-22T06:16:51.238Z,86.77
2023-02-22T06:17:42.099Z,86.77
2023-02-22T06:18:32.978Z,86.77
2023-02-22T06:19:23.961Z,86.87
2023-02-22T06:20:15.053Z,86.87
2023-02-22T06:21:05.900Z,86.87
2023-02-22T06:21:56.790Z,86.98
2023-02-22T06:22:47.642Z,87.08
2023-02-22T06:23:38.533Z,87.08
2023-02-22T06:24:29.383Z,87.18
2023-02-22T06:25:20.247Z,87.18
2023-02-22T06:26:11.116Z,87.18
2023-02-22T06:27:02.019Z,87.28
2023-02-22T06:27:52.890Z,87.28
2023-02-22T06:28:43.783Z,87.28
2023-02-22T06:29:34.671Z,87.38
2023-02-22T06:30:25.580Z,87.38
2023-02-22T06:31:16.864Z,87.38
2023-02-22T06:32:07.267Z,87.38
2023-02-22T06:32:58.100Z,87.38
2023-02-22T06:33:48.983Z,87.49
2023-02-22T06:34:39.865Z,87.49
2023-02-22T06:35:30.783Z,87.49
2023-02-22T06:36:21.663Z,87.49
2023-02-22T06:37:12.549Z,87.49
2023-02-22T06:38:03.440Z,87.49
2023-02-22T06:38:54.335Z,87.49
2023-02-22T06:39:45.216Z,87.59
2023-02-22T06:40:36.099Z,87.59
2023-02-22T06:41:26.975Z,87.59
2023-02-22T06:42:17.960Z,87.59
2023-02-22T06:43:08.784Z,87.59
2023-02-22T06:43:59.664Z,87.59
2023-02-22T06:44:51.787Z,87.59
2023-02-22T06:45:41.478Z,87.59
2023-02-22T06:46:32.355Z,87.70
2023-02-22T06:47:23.226Z,87.70
2023-02-22T06:48:14.116Z,87.70
2023-02-22T06:49:04.984Z,87.70
2023-02-22T06:49:55.877Z,87.70
2023-02-22T06:50:46.752Z,87.70
2023-02-22T06:51:37.642Z,87.79
2023-02-22T06:52:28.515Z,87.79
2023-02-22T06:53:19.403Z,87.79
2023-02-22T06:54:10.284Z,87.79
2023-02-22T06:55:01.164Z,87.79
2023-02-22T06:55:52.043Z,87.76
2023-02-22T06:56:42.950Z,87.90
2023-02-22T06:57:33.809Z,87.90
2023-02-22T06:58:24.697Z,87.85
2023-02-22T06:59:15.568Z,87.85
2023-02-22T07:00:06.484Z,87.96
2023-02-22T07:00:57.424Z,87.96
2023-02-22T07:01:48.266Z,87.96
2023-02-22T07:02:39.251Z,87.96
2023-02-22T07:03:30.172Z,87.96
2023-02-22T07:04:21.026Z,87.96
2023-02-22T07:05:11.900Z,87.96
2023-02-22T07:06:02.782Z,87.96
2023-02-22T07:06:53.664Z,87.96
2023-02-22T07:07:44.536Z,87.96
2023-02-22T07:08:35.404Z,88.06
2023-02-22T07:09:26.297Z,88.06
2023-02-22T07:10:17.226Z,88.06
2023-02-22T07:11:08.102Z,88.06
2023-02-22T07:11:59.004Z,88.06
2023-02-22T07:12:49.872Z,88.06
2023-02-22T07:13:40.785Z,88.06
2023-02-22T07:14:31.662Z,88.06
2023-02-22T07:15:22.533Z,88.06
2023-02-22T07:16:13.407Z,88.06
2023-02-22T07:17:04.270Z,88.06
2023-02-22T07:17:55.146Z,88.06
2023-02-22T07:18:46.057Z,87.96
2023-02-22T07:19:36.931Z,87.96
2023-02-22T07:20:27.821Z,87.96
2023-02-22T07:21:19.061Z,87.96
2023-02-22T07:22:09.342Z,87.96
2023-02-22T07:23:00.206Z,87.96
2023-02-22T07:23:51.092Z,87.96
2023-02-22T07:24:41.979Z,87.96
2023-02-22T07:25:32.852Z,87.96
2023-02-22T07:26:23.769Z,87.96
2023-02-22T07:27:14.601Z,87.96
2023-02-22T07:28:05.492Z,87.96
2023-02-22T07:28:56.392Z,88.06
2023-02-22T07:29:47.304Z,88.06
2023-02-22T07:30:38.323Z,87.96
2023-02-22T07:31:29.760Z,87.96
2023-02-22T07:32:20.111Z,87.96
2023-02-22T07:33:11.107Z,88.06
2023-02-22T07:34:01.964Z,87.96
2023-02-22T07:34:52.866Z,88.06
2023-02-22T07:35:43.732Z,88.06
2023-02-22T07:36:34.636Z,88.06
2023-02-22T07:37:25.527Z,88.06
2023-02-22T07:38:16.406Z,88.06
2023-02-22T07:39:07.292Z,88.06
2023-02-22T07:39:58.187Z,88.06
2023-02-22T07:40:49.088Z,88.17
2023-02-22T07:41:39.972Z,88.17
2023-02-22T07:42:30.872Z,88.17
2023-02-22T07:43:21.767Z,88.17
2023-02-22T07:44:12.685Z,88.17
2023-02-22T07:45:03.623Z,88.27
2023-02-22T07:45:54.549Z,88.27
2023-02-22T07:46:45.404Z,88.27
2023-02-22T07:47:36.302Z,88.27
2023-02-22T07:48:27.202Z,88.27
2023-02-22T07:49:18.120Z,88.23
2023-02-22T07:50:09.048Z,88.23
2023-02-22T07:50:59.986Z,88.12
2023-02-22T07:51:50.878Z,88.12
2023-02-22T07:52:41.786Z,88.02
2023-02-22T07:53:32.709Z,88.02
2023-02-22T07:54:23.601Z,88.02
2023-02-22T07:55:14.508Z,87.92
2023-02-22T07:56:05.521Z,87.92
2023-02-22T07:56:56.380Z,87.92
2023-02-22T07:57:47.282Z,87.92
2023-02-22T07:58:38.181Z,87.92
2023-02-22T07:59:29.104Z,87.92
2023-02-22T08:00:20.017Z,87.92
2023-02-22T08:01:10.965Z,87.92
2023-02-22T08:02:01.835Z,87.92
2023-02-22T08:02:52.751Z,87.92
2023-02-22T08:03:43.687Z,87.82
2023-02-22T08:04:34.586Z,87.82
2023-02-22T08:05:25.489Z,87.82
2023-02-22T08:06:16.387Z,87.71
2023-02-22T08:07:07.305Z,87.71
2023-02-22T08:07:58.225Z,87.71
2023-02-22T08:08:49.151Z,87.71
2023-02-22T08:09:40.052Z,87.71
2023-02-22T08:10:31.039Z,87.61
2023-02-22T08:11:21.893Z,87.61
2023-02-22T08:12:12.816Z,87.61
2023-02-22T08:13:03.704Z,87.61
2023-02-22T08:13:54.610Z,87.61
2023-02-22T08:14:45.520Z,87.61
2023-02-22T08:15:36.450Z,87.61
2023-02-22T08:16:27.397Z,87.51
2023-02-22T08:17:18.342Z,87.51
2023-02-22T08:18:09.199Z,87.51
2023-02-22T08:19:00.109Z,87.51
2023-02-22T08:19:51.003Z,87.51
2023-02-22T08:20:41.907Z,87.51
2023-02-22T08:21:32.814Z,87.51
2023-02-22T08:22:23.715Z,87.61
2023-02-22T08:23:14.610Z,87.57
2023-02-22T08:24:05.519Z,87.47
2023-02-22T08:24:56.428Z,87.47
2023-02-22T08:25:47.360Z,87.47
2023-02-22T08:26:38.282Z,87.47
2023-02-22T08:27:29.176Z,87.47
2023-02-22T08:28:20.090Z,87.47
2023-02-22T08:29:11.007Z,87.47
2023-02-22T08:30:01.927Z,87.37
2023-02-22T08:30:52.916Z,87.47
2023-02-22T08:31:43.850Z,87.47
2023-02-22T08:32:34.808Z,87.47
2023-02-22T08:33:25.905Z,87.47
2023-02-22T08:34:16.788Z,87.47
2023-02-22T08:35:07.711Z,87.47
2023-02-22T08:35:58.608Z,87.57
2023-02-22T08:36:49.513Z,87.57
2023-02-22T08:37:40.423Z,87.47
2023-02-22T08:38:31.322Z,87.47
2023-02-22T08:39:22.223Z,87.47
2023-02-22T08:40:14.860Z,87.47
2023-02-22T08:41:04.076Z,87.47
2023-02-22T08:41:54.994Z,87.47
2023-02-22T08:42:45.887Z,87.57
2023-02-22T08:43:36.811Z,87.47
2023-02-22T08:44:27.726Z,87.47
2023-02-22T08:45:18.652Z,87.47
2023-02-22T08:46:09.595Z,87.37
2023-02-22T08:47:00.491Z,87.37
2023-02-22T08:47:51.384Z,87.37
2023-02-22T08:48:42.285Z,87.37
2023-02-22T08:49:33.204Z,87.37
2023-02-22T08:50:24.110Z,87.37
2023-02-22T08:51:15.238Z,87.37
2023-02-22T08:52:06.152Z,87.47
2023-02-22T08:52:57.046Z,87.47
2023-02-22T08:53:47.969Z,87.47
2023-02-22T08:54:38.875Z,87.43
2023-02-22T08:55:29.805Z,87.32
2023-02-22T08:56:20.721Z,87.32
2023-02-22T08:57:11.627Z,87.22
2023-02-22T08:58:02.571Z,87.22
2023-02-22T08:58:53.446Z,87.22
2023-02-22T08:59:44.364Z,87.22
2023-02-22T09:00:35.281Z,87.22
2023-02-22T09:01:32.921Z,87.22
2023-02-22T09:02:18.316Z,87.22
2023-02-22T09:03:07.981Z,87.22
2023-02-22T09:03:59.025Z,87.22
2023-02-22T09:04:49.897Z,87.12
2023-02-22T09:05:40.823Z,87.02
2023-02-22T09:06:31.723Z,87.02
2023-02-22T09:07:22.624Z,86.91
2023-02-22T09:08:13.537Z,86.91
2023-02-22T09:09:04.463Z,86.91
2023-02-22T09:09:55.377Z,86.81
2023-02-22T09:10:46.284Z,86.77
2023-02-22T09:11:37.187Z,86.77
2023-02-22T09:12:28.110Z,86.67
2023-02-22T09:13:18.986Z,86.67
2023-02-22T09:14:09.884Z,86.67
2023-02-22T09:15:00.796Z,86.67
2023-02-22T09:15:51.694Z,86.67
2023-02-22T09:16:42.644Z,86.57
2023-02-22T09:17:33.543Z,86.57
2023-02-22T09:18:25.602Z,86.46
2023-02-22T09:19:16.497Z,86.46
2023-02-22T09:20:06.116Z,86.57
2023-02-22T09:20:57.024Z,86.57
2023-02-22T09:21:47.955Z,86.57
2023-02-22T09:22:38.891Z,86.43
2023-02-22T09:23:29.797Z,86.32
2023-02-22T09:24:20.714Z,86.32
2023-02-22T09:25:17.123Z,86.12
2023-02-22T09:26:02.545Z,86.12
2023-02-22T09:26:53.497Z,86.02
2023-02-22T09:27:44.412Z,86.02
2023-02-22T09:28:35.320Z,86.02
2023-02-22T09:29:26.219Z,85.91
2023-02-22T09:30:17.164Z,85.91
2023-02-22T09:31:08.034Z,85.81
2023-02-22T09:31:59.152Z,85.81
2023-02-22T09:32:50.385Z,85.71
2023-02-22T09:33:41.272Z,85.71
2023-02-22T09:34:32.184Z,85.61
2023-02-22T09:35:23.090Z,85.61
2023-02-22T09:36:14.308Z,85.50
2023-02-22T09:37:04.942Z,85.36
2023-02-22T09:37:55.857Z,85.26
2023-02-22T09:38:46.769Z,85.26
2023-02-22T09:39:37.996Z,85.26
2023-02-22T09:40:28.859Z,85.26
2023-02-22T09:41:19.796Z,85.36
2023-02-22T09:42:10.702Z,85.26
2023-02-22T09:43:01.624Z,85.26
2023-02-22T09:43:52.532Z,85.26
2023-02-22T09:44:43.445Z,85.16
2023-02-22T09:45:34.390Z,85.16
2023-02-22T09:46:25.271Z,85.16
2023-02-22T09:47:16.187Z,85.06
2023-02-22T09:48:20.790Z,85.06
2023-02-22T09:48:59.020Z,84.95
2023-02-22T09:49:48.722Z,84.95
2023-02-22T09:50:39.812Z,84.85
2023-02-22T09:51:30.727Z,84.81
2023-02-22T09:52:21.645Z,84.71
2023-02-22T09:53:12.560Z,84.61
2023-02-22T09:54:03.504Z,84.50
2023-02-22T09:54:54.424Z,84.41
2023-02-22T09:55:45.355Z,84.30
2023-02-22T09:56:36.273Z,84.16
2023-02-22T09:57:27.195Z,84.06
2023-02-22T09:58:18.131Z,83.95
2023-02-22T09:59:09.092Z,83.95
2023-02-22T10:00:00.033Z,83.95
2023-02-22T10:00:50.956Z,83.85
2023-02-22T10:01:41.893Z,83.85
2023-02-22T10:02:32.801Z,83.85
2023-02-22T10:03:23.744Z,83.65
2023-02-22T10:04:14.623Z,83.65
2023-02-22T10:05:05.625Z,83.65
2023-02-22T10:05:56.522Z,83.65
2023-02-22T10:06:47.449Z,83.75
2023-02-22T10:07:38.366Z,83.65
2023-02-22T10:08:31.170Z,83.65
2023-02-22T10:09:20.464Z,83.65
2023-02-22T10:10:11.370Z,83.75
2023-02-22T10:11:02.277Z,83.75
2023-02-22T10:11:53.200Z,83.75
2023-02-22T10:12:44.139Z,83.75
2023-02-22T10:13:35.060Z,83.75
2023-02-22T10:14:25.999Z,83.75
2023-02-22T10:15:16.920Z,83.65
2023-02-22T10:16:07.971Z,83.54
2023-02-22T10:16:58.841Z,83.44
2023-02-22T10:17:49.760Z,83.34
2023-02-22T10:18:40.689Z,83.24
2023-02-22T10:19:31.591Z,83.14
2023-02-22T10:20:22.511Z,83.04
2023-02-22T10:21:13.410Z,82.93
2023-02-22T10:22:04.320Z,82.93
2023-02-22T10:22:55.232Z,82.83
2023-02-22T10:23:46.152Z,82.93
2023-02-22T10:24:37.065Z,82.93
2023-02-22T10:25:27.983Z,82.97
2023-02-22T10:26:19.253Z,82.97
2023-02-22T10:27:09.533Z,83.07
2023-02-22T10:28:00.467Z,83.18
2023-02-22T10:28:51.356Z,83.38
2023-02-22T10:29:42.277Z,83.48
2023-02-22T10:30:34.325Z,83.48
2023-02-22T10:31:24.398Z,83.48
2023-02-22T10:32:15.441Z,83.38
2023-02-22T10:33:06.331Z,83.48
2023-02-22T10:33:57.353Z,83.48
2023-02-22T10:34:48.204Z,83.48
2023-02-22T10:35:39.121Z,83.52
2023-02-22T10:36:30.036Z,83.52
2023-02-22T10:37:20.967Z,83.62
2023-02-22T10:38:11.869Z,83.62
2023-02-22T10:39:02.761Z,83.83
2023-02-22T10:39:53.770Z,83.83
2023-02-22T10:40:44.626Z,83.83
2023-02-22T10:41:35.533Z,83.93
2023-02-22T10:42:26.477Z,83.93
2023-02-22T10:43:17.375Z,83.93
2023-02-22T10:44:08.273Z,83.93
2023-02-22T10:44:59.174Z,84.03
2023-02-22T10:45:50.097Z,84.03
2023-02-22T10:46:40.999Z,84.03
2023-02-22T10:47:31.901Z,84.03
2023-02-22T10:48:22.814Z,84.14
2023-02-22T10:49:13.753Z,84.03
2023-02-22T10:50:04.646Z,84.03
2023-02-22T10:50:55.565Z,83.93
2023-02-22T10:51:46.476Z,83.93
2023-02-22T10:52:37.383Z,83.83
2023-02-22T10:53:28.299Z,83.83
2023-02-22T10:54:19.220Z,83.73